createdAt,value
2018-06-19T00:00:40.330Z,2.83
2018-06-19T00:03:11.046Z,3.00
2018-06-19T00:05:41.737Z,2.13
2018-06-19T00:08:12.366Z,2.20
2018-06-19T00:10:43.007Z,2.53
2018-06-19T00:13:13.735Z,3.13
2018-06-19T00:15:44.397Z,4.10
2018-06-19T00:18:20.178Z,4.40
2018-06-19T00:20:51.843Z,3.13
2018-06-19T00:23:22.523Z,4.40
2018-06-19T00:25:53.180Z,3.60
2018-06-19T00:28:23.968Z,2.77
2018-06-19T00:30:54.622Z,4.03
2018-06-19T00:33:25.246Z,2.30
2018-06-19T00:35:56.055Z,3.10
2018-06-19T00:38:26.685Z,3.30
2018-06-19T00:40:57.382Z,2.80
2018-06-19T00:43:28.041Z,5.10
2018-06-19T00:45:59.856Z,3.43
2018-06-19T00:48:30.533Z,2.40
2018-06-19T00:51:01.332Z,3.80
2018-06-19T00:53:31.999Z,2.30
2018-06-19T00:56:19.451Z,4.67
2018-06-19T00:58:50.076Z,6.90
2018-06-19T01:01:20.853Z,3.10
2018-06-19T01:03:51.469Z,2.43
2018-06-19T01:06:22.099Z,2.53
2018-06-19T01:08:52.744Z,2.97
2018-06-19T01:11:23.364Z,5.80
2018-06-19T01:13:54.094Z,3.83
2018-06-19T01:16:24.735Z,4.20
2018-06-19T01:18:55.429Z,3.40
2018-06-19T01:21:26.084Z,2.53
2018-06-19T01:23:56.715Z,5.53
2018-06-19T01:26:27.371Z,3.30
2018-06-19T01:28:58.085Z,2.40
2018-06-19T01:31:28.743Z,2.97
2018-06-19T01:33:59.430Z,5.57
2018-06-19T01:36:30.125Z,2.70
2018-06-19T01:39:01.396Z,4.30
2018-06-19T01:41:32.012Z,3.07
2018-06-19T01:44:02.853Z,2.50
2018-06-19T01:46:33.454Z,4.33
2018-06-19T01:49:04.135Z,2.60
2018-06-19T01:51:34.420Z,2.63
2018-06-19T01:54:04.937Z,5.50
2018-06-19T01:56:35.771Z,4.43
2018-06-19T01:59:06.715Z,3.03
2018-06-19T02:01:37.349Z,2.00
2018-06-19T02:04:08.075Z,4.83
2018-06-19T02:06:38.719Z,3.80
2018-06-19T02:09:09.916Z,2.87
2018-06-19T02:11:40.549Z,3.97
2018-06-19T02:14:11.218Z,3.70
2018-06-19T02:16:41.855Z,2.37
2018-06-19T02:19:12.484Z,4.97
2018-06-19T02:21:43.228Z,2.83
2018-06-19T02:24:13.936Z,4.07
2018-06-19T02:26:44.559Z,2.87
2018-06-19T02:29:15.146Z,4.27
2018-06-19T02:31:45.818Z,5.63
2018-06-19T02:34:16.464Z,2.70
2018-06-19T02:36:47.659Z,5.47
2018-06-19T02:39:18.305Z,3.70
2018-06-19T02:41:48.962Z,2.93
2018-06-19T02:44:19.601Z,3.43
2018-06-19T02:46:50.300Z,5.30
2018-06-19T02:49:20.950Z,2.57
2018-06-19T02:51:51.845Z,2.93
2018-06-19T02:54:22.510Z,3.90
2018-06-19T02:56:53.196Z,4.87
2018-06-19T02:59:23.810Z,4.60
2018-06-19T03:01:54.506Z,6.70
2018-06-19T03:04:25.144Z,5.13
2018-06-19T03:06:55.951Z,5.90
2018-06-19T03:09:26.606Z,3.57
2018-06-19T03:11:57.253Z,6.33
2018-06-19T03:14:27.873Z,3.20
2018-06-19T03:16:58.529Z,3.83
2018-06-19T03:19:29.153Z,5.13
2018-06-19T03:21:59.834Z,4.03
2018-06-19T03:24:30.441Z,4.97
2018-06-19T03:27:01.096Z,5.03
2018-06-19T03:29:31.848Z,6.83
2018-06-19T03:32:02.537Z,6.10
2018-06-19T03:34:33.176Z,5.10
2018-06-19T03:37:03.844Z,8.27
2018-06-19T03:39:34.542Z,8.40
2018-06-19T03:42:05.252Z,5.17
2018-06-19T03:44:35.904Z,5.07
2018-06-19T03:47:06.717Z,5.87
2018-06-19T03:49:37.368Z,5.10
2018-06-19T03:52:08.165Z,5.67
2018-06-19T03:54:38.784Z,4.13
2018-06-19T03:57:09.424Z,6.13
2018-06-19T03:59:40.100Z,5.50
2018-06-19T04:02:10.794Z,4.73
2018-06-19T04:04:41.511Z,5.77
2018-06-19T04:07:12.160Z,4.43
2018-06-19T04:09:42.812Z,5.73
2018-06-19T04:12:13.492Z,6.47
2018-06-19T04:14:44.592Z,5.73
2018-06-19T04:17:22.885Z,7.40
2018-06-19T04:19:54.036Z,3.83
2018-06-19T04:22:25.155Z,6.23
2018-06-19T04:24:55.829Z,6.40
2018-06-19T04:27:26.674Z,3.90
2018-06-19T04:29:57.330Z,11.43
2018-06-19T04:32:27.991Z,5.37
2018-06-19T04:34:58.628Z,6.70
2018-06-19T04:37:29.248Z,4.67
2018-06-19T04:39:59.922Z,8.33
2018-06-19T04:42:30.595Z,7.33
2018-06-19T04:45:01.265Z,6.87
2018-06-19T04:47:31.932Z,6.87
2018-06-19T04:50:02.563Z,7.50
2018-06-19T04:52:33.172Z,7.20
2018-06-19T04:55:03.831Z,7.63
2018-06-19T04:57:34.524Z,7.87
2018-06-19T05:00:05.725Z,4.97
2018-06-19T05:02:36.539Z,7.27
2018-06-19T05:05:07.285Z,10.50
2018-06-19T05:07:37.905Z,6.93
2018-06-19T05:10:08.724Z,9.67
2018-06-19T05:12:39.466Z,9.80
2018-06-19T05:15:10.330Z,10.93
2018-06-19T05:17:40.950Z,8.70
2018-06-19T05:20:11.651Z,11.13
2018-06-19T05:22:42.301Z,10.10
2018-06-19T05:25:13.603Z,5.93
2018-06-19T05:27:44.204Z,8.03
2018-06-19T05:30:14.855Z,9.40
2018-06-19T05:32:45.642Z,9.67
2018-06-19T05:35:16.371Z,11.70
2018-06-19T05:37:47.105Z,10.17
2018-06-19T05:40:17.781Z,8.53
2018-06-19T05:42:48.510Z,8.00
2018-06-19T05:45:19.173Z,7.80
2018-06-19T05:47:49.890Z,10.03
2018-06-19T05:50:20.594Z,9.83
2018-06-19T05:52:51.276Z,11.77
2018-06-19T05:55:22.876Z,11.00
2018-06-19T05:57:53.524Z,10.37
2018-06-19T06:00:23.836Z,10.83
2018-06-19T06:02:54.391Z,14.17
2018-06-19T06:05:25.019Z,11.10
2018-06-19T06:07:55.707Z,13.60
2018-06-19T06:10:26.414Z,12.33
2018-06-19T06:12:57.087Z,10.97
2018-06-19T06:15:27.747Z,11.47
2018-06-19T06:17:58.428Z,13.23
2018-06-19T06:20:29.239Z,11.83
2018-06-19T06:22:59.891Z,11.40
2018-06-19T06:25:30.552Z,11.97
2018-06-19T06:28:01.247Z,12.87
2018-06-19T06:30:31.874Z,12.67
2018-06-19T06:33:02.525Z,13.67
2018-06-19T06:35:33.163Z,15.23
2018-06-19T06:38:03.849Z,13.67
2018-06-19T06:40:34.478Z,13.17
2018-06-19T06:43:05.209Z,15.10
2018-06-19T06:45:35.840Z,11.73
2018-06-19T06:48:06.520Z,14.37
2018-06-19T06:50:37.144Z,14.03
2018-06-19T06:53:07.903Z,12.30
2018-06-19T06:55:38.525Z,16.97
2018-06-19T06:58:09.261Z,13.17
2018-06-19T07:00:39.919Z,16.40
2018-06-19T07:03:10.639Z,11.53
2018-06-19T07:05:41.283Z,12.40
2018-06-19T07:08:12.090Z,14.13
2018-06-19T07:10:42.672Z,14.80
2018-06-19T07:13:13.422Z,12.13
2018-06-19T07:15:44.080Z,12.20
2018-06-19T07:18:14.823Z,15.17
2018-06-19T07:20:45.468Z,12.47
2018-06-19T07:23:16.127Z,15.97
2018-06-19T07:25:46.819Z,11.70
2018-06-19T07:28:17.469Z,13.27
2018-06-19T07:30:48.168Z,12.67
2018-06-19T07:33:18.868Z,15.33
2018-06-19T07:35:49.543Z,13.27
2018-06-19T07:38:20.180Z,15.30
2018-06-19T07:40:50.872Z,14.00
2018-06-19T07:43:21.508Z,12.90
2018-06-19T07:45:52.281Z,18.00
2018-06-19T07:48:22.929Z,16.83
2018-06-19T07:50:53.590Z,15.53
2018-06-19T07:53:24.221Z,15.77
2018-06-19T07:55:54.918Z,16.97
2018-06-19T07:58:25.538Z,15.40
2018-06-19T08:00:56.200Z,16.00
2018-06-19T08:03:26.811Z,16.80
2018-06-19T08:05:57.449Z,16.57
2018-06-19T08:08:28.814Z,16.67
2018-06-19T08:10:59.487Z,17.63
2018-06-19T08:13:30.237Z,19.40
2018-06-19T08:16:00.899Z,19.50
2018-06-19T08:18:31.602Z,17.33
2018-06-19T08:21:02.208Z,20.07
2018-06-19T08:23:32.872Z,19.63
2018-06-19T08:26:18.468Z,23.27
2018-06-19T08:28:49.170Z,17.60
2018-06-19T08:31:19.835Z,18.60
2018-06-19T08:33:50.460Z,19.60
2018-06-19T08:36:21.185Z,19.93
2018-06-19T08:38:51.815Z,21.30
2018-06-19T08:41:22.470Z,22.17
2018-06-19T08:43:53.125Z,23.90
2018-06-19T08:46:23.764Z,20.93
2018-06-19T08:48:54.511Z,19.70
2018-06-19T08:51:25.181Z,19.43
2018-06-19T08:53:55.885Z,19.13
2018-06-19T08:56:26.551Z,18.93
2018-06-19T08:58:57.198Z,18.40
2018-06-19T09:01:29.856Z,18.90
2018-06-19T09:04:00.726Z,16.57
2018-06-19T09:06:31.392Z,18.33
2018-06-19T09:09:01.791Z,18.30
2018-06-19T09:11:32.313Z,17.73
2018-06-19T09:14:03.019Z,16.30
2018-06-19T09:16:33.671Z,15.70
2018-06-19T09:19:04.332Z,18.37
2018-06-19T09:21:34.966Z,14.90
2018-06-19T09:24:05.658Z,17.67
2018-06-19T09:26:36.275Z,15.70
2018-06-19T09:29:07.073Z,17.03
2018-06-19T09:31:37.788Z,17.40
2018-06-19T09:34:08.447Z,14.83
2018-06-19T09:36:39.397Z,15.53
2018-06-19T09:39:12.312Z,16.30
2018-06-19T09:41:44.243Z,17.13
2018-06-19T09:44:15.032Z,19.67
2018-06-19T09:46:45.715Z,19.37
2018-06-19T09:49:16.418Z,18.27
2018-06-19T09:51:47.159Z,19.93
2018-06-19T09:54:17.793Z,19.70
2018-06-19T09:56:48.525Z,19.60
2018-06-19T09:59:19.315Z,19.77
2018-06-19T10:01:50.122Z,22.63
2018-06-19T10:04:20.908Z,25.63
2018-06-19T10:06:51.616Z,23.57
2018-06-19T10:09:22.478Z,27.30
2018-06-19T10:11:53.202Z,26.67
2018-06-19T10:14:23.898Z,27.03
2018-06-19T10:17:01.206Z,27.10
2018-06-19T10:19:31.904Z,30.50
2018-06-19T10:22:02.518Z,32.13
2018-06-19T10:24:33.463Z,33.40
2018-06-19T10:27:04.180Z,31.27
2018-06-19T10:29:34.904Z,33.97
2018-06-19T10:32:05.774Z,30.60
2018-06-19T10:34:36.421Z,29.63
2018-06-19T10:37:07.176Z,32.03
2018-06-19T10:39:37.832Z,34.20
2018-06-19T10:42:08.497Z,33.83
2018-06-19T10:44:39.150Z,33.30
2018-06-19T10:47:09.871Z,32.63
2018-06-19T10:49:40.581Z,34.83
2018-06-19T10:52:11.253Z,34.63
2018-06-19T10:54:41.888Z,33.70
2018-06-19T10:57:12.573Z,30.70
2018-06-19T10:59:43.220Z,29.27
2018-06-19T11:02:13.895Z,33.63
2018-06-19T11:04:44.556Z,30.87
2018-06-19T11:07:15.272Z,27.93
2018-06-19T11:09:45.907Z,27.57
2018-06-19T11:12:16.554Z,25.53
2018-06-19T11:14:47.181Z,25.50
2018-06-19T11:17:17.823Z,24.47
2018-06-19T11:19:49.002Z,24.87
2018-06-19T11:22:19.734Z,24.30
2018-06-19T11:24:50.356Z,23.07
2018-06-19T11:27:21.068Z,22.03
2018-06-19T11:29:51.708Z,22.53
2018-06-19T11:32:22.418Z,24.23
2018-06-19T11:34:53.136Z,22.87
2018-06-19T11:37:24.278Z,24.67
2018-06-19T11:39:54.988Z,23.50
2018-06-19T11:42:25.697Z,23.07
2018-06-19T11:44:56.350Z,23.77
2018-06-19T11:47:26.734Z,23.17
2018-06-19T11:49:57.307Z,22.60
2018-06-19T11:52:28.060Z,21.70
2018-06-19T11:54:58.760Z,21.33
2018-06-19T11:57:29.473Z,22.37
2018-06-19T12:00:00.140Z,23.37
2018-06-19T12:02:30.821Z,25.67
2018-06-19T12:05:01.481Z,22.87
2018-06-19T12:07:37.324Z,22.57
2018-06-19T12:10:08.406Z,22.73
2018-06-19T12:12:39.780Z,19.77
2018-06-19T12:15:10.513Z,20.37
2018-06-19T12:17:41.223Z,20.07
2018-06-19T12:20:11.973Z,20.83
2018-06-19T12:22:42.622Z,19.90
2018-06-19T12:25:13.271Z,19.93
2018-06-19T12:27:43.977Z,19.87
2018-06-19T12:30:14.651Z,19.10
2018-06-19T12:32:45.262Z,17.63
2018-06-19T12:35:15.935Z,16.03
2018-06-19T12:37:46.578Z,17.80
2018-06-19T12:40:17.216Z,18.50
2018-06-19T12:42:47.866Z,16.20
2018-06-19T12:45:18.515Z,16.70
2018-06-19T12:47:49.176Z,17.93
2018-06-19T12:50:38.740Z,16.50
2018-06-19T12:53:26.178Z,14.50
2018-06-19T12:56:15.327Z,14.30
2018-06-19T12:58:45.932Z,13.33
2018-06-19T13:01:16.611Z,13.00
2018-06-19T13:04:03.958Z,12.90
2018-06-19T13:06:37.016Z,12.93
2018-06-19T13:09:09.272Z,14.13
2018-06-19T13:11:39.932Z,13.47
2018-06-19T13:14:38.089Z,15.03
2018-06-19T13:17:25.580Z,13.97
2018-06-19T13:20:13.099Z,13.20
2018-06-19T13:22:43.764Z,12.37
2018-06-19T13:25:14.407Z,12.07
2018-06-19T13:27:45.091Z,12.27
2018-06-19T13:30:32.551Z,10.70
2018-06-19T13:33:03.226Z,11.07
2018-06-19T13:35:33.990Z,13.17
2018-06-19T13:38:04.669Z,9.40
2018-06-19T13:41:18.750Z,9.83
2018-06-19T13:44:08.066Z,8.00
2018-06-19T13:46:38.703Z,6.57
2018-06-19T13:49:09.492Z,6.63
2018-06-19T13:51:40.115Z,5.90
2018-06-19T13:54:10.858Z,7.17
2018-06-19T13:57:31.360Z,7.37
2018-06-19T14:00:04.033Z,7.57
2018-06-19T14:02:34.696Z,9.83
2018-06-19T14:05:06.153Z,8.30
2018-06-19T14:07:43.973Z,7.87
2018-06-19T14:10:31.685Z,9.13
2018-06-19T14:13:03.611Z,8.67
2018-06-19T14:15:37.740Z,7.87
2018-06-19T14:18:09.044Z,7.03
2018-06-19T14:20:40.244Z,7.17
2018-06-19T14:23:11.255Z,7.30
2018-06-19T14:25:42.072Z,6.63
2018-06-19T14:28:12.763Z,6.47
2018-06-19T14:30:43.429Z,6.83
2018-06-19T14:33:14.221Z,7.23
2018-06-19T14:35:44.739Z,7.40
2018-06-19T14:38:15.361Z,6.83
2018-06-19T14:40:46.021Z,7.03
2018-06-19T14:43:16.654Z,7.07
2018-06-19T14:45:47.381Z,6.20
2018-06-19T14:48:18.007Z,7.00
2018-06-19T14:50:48.667Z,6.80
2018-06-19T14:53:19.281Z,8.57
2018-06-19T14:55:49.959Z,8.17
2018-06-19T14:58:20.608Z,9.43
2018-06-19T15:00:51.257Z,9.20
2018-06-19T15:03:21.892Z,8.37
2018-06-19T15:05:52.547Z,9.67
2018-06-19T15:08:23.196Z,9.43
2018-06-19T15:10:53.863Z,8.77
2018-06-19T15:13:24.524Z,7.93
2018-06-19T15:15:55.238Z,7.70
2018-06-19T15:18:25.955Z,7.10
2018-06-19T15:20:56.587Z,5.67
2018-06-19T15:23:27.432Z,6.50
2018-06-19T15:25:58.092Z,6.93
2018-06-19T15:28:28.733Z,6.97
2018-06-19T15:30:59.348Z,6.90
2018-06-19T15:33:30.016Z,7.43
2018-06-19T15:36:00.644Z,7.00
2018-06-19T15:38:31.307Z,8.07
2018-06-19T15:41:01.997Z,7.40
2018-06-19T15:43:32.616Z,8.27
2018-06-19T15:46:03.266Z,7.20
2018-06-19T15:48:33.978Z,6.23
2018-06-19T15:51:04.581Z,6.83
2018-06-19T15:53:35.230Z,7.03
2018-06-19T15:56:05.853Z,7.23
2018-06-19T15:58:36.502Z,7.60
2018-06-19T16:01:07.235Z,7.90
2018-06-19T16:03:37.902Z,7.93
2018-06-19T16:06:08.580Z,7.73
2018-06-19T16:08:39.375Z,7.47
2018-06-19T16:11:10.066Z,10.80
2018-06-19T16:13:40.910Z,9.37
2018-06-19T16:16:11.636Z,9.20
2018-06-19T16:18:42.606Z,8.73
2018-06-19T16:21:13.289Z,7.97
2018-06-19T16:23:43.936Z,8.00
2018-06-19T16:26:14.626Z,8.53
2018-06-19T16:28:45.280Z,7.37
2018-06-19T16:31:15.962Z,8.17
2018-06-19T16:33:46.579Z,7.97
2018-06-19T16:36:17.300Z,8.10
2018-06-19T16:38:47.950Z,8.23
2018-06-19T16:41:18.640Z,7.43
2018-06-19T16:43:49.308Z,6.83
2018-06-19T16:46:19.994Z,8.30
2018-06-19T16:48:50.642Z,8.33
2018-06-19T16:51:21.280Z,7.43
2018-06-19T16:53:51.925Z,8.27
2018-06-19T16:56:22.600Z,9.43
2018-06-19T16:58:53.274Z,9.20
2018-06-19T17:01:24.024Z,10.60
2018-06-19T17:03:54.672Z,9.23
2018-06-19T17:06:25.344Z,9.73
2018-06-19T17:08:56.024Z,10.03
2018-06-19T17:11:26.669Z,8.00
2018-06-19T17:13:57.364Z,7.33
2018-06-19T17:16:28.029Z,7.50
2018-06-19T17:18:58.705Z,7.17
2018-06-19T17:21:29.393Z,7.73
2018-06-19T17:24:00.183Z,7.90
2018-06-19T17:26:30.864Z,7.10
2018-06-19T17:29:01.632Z,6.93
2018-06-19T17:31:32.241Z,7.07
2018-06-19T17:34:02.913Z,8.67
2018-06-19T17:36:33.533Z,7.30
2018-06-19T17:39:04.985Z,7.13
2018-06-19T17:41:35.759Z,7.17
2018-06-19T17:44:06.543Z,7.23
2018-06-19T17:46:37.186Z,7.27
2018-06-19T17:49:07.893Z,7.20
2018-06-19T17:51:38.535Z,7.57
2018-06-19T17:54:09.385Z,6.80
2018-06-19T17:56:40.083Z,6.63
2018-06-19T17:59:10.765Z,6.73
2018-06-19T18:01:41.422Z,6.50
2018-06-19T18:04:12.113Z,7.50
2018-06-19T18:06:42.738Z,9.07
2018-06-19T18:09:13.467Z,7.20
2018-06-19T18:11:44.125Z,7.40
2018-06-19T18:14:14.823Z,7.07
2018-06-19T18:16:45.455Z,5.80
2018-06-19T18:19:16.123Z,5.67
2018-06-19T18:21:46.894Z,5.80
2018-06-19T18:24:17.561Z,7.23
2018-06-19T18:26:48.323Z,6.53
2018-06-19T18:29:18.964Z,6.97
2018-06-19T18:31:49.800Z,6.33
2018-06-19T18:34:20.476Z,6.90
2018-06-19T18:36:51.164Z,6.87
2018-06-19T18:39:21.823Z,7.80
2018-06-19T18:41:52.526Z,7.10
2018-06-19T18:44:23.211Z,7.47
2018-06-19T18:46:53.872Z,7.37
2018-06-19T18:49:24.675Z,7.53
2018-06-19T18:51:55.469Z,7.30
2018-06-19T18:54:26.108Z,7.20
2018-06-19T18:56:56.800Z,7.70
2018-06-19T18:59:27.469Z,8.00
2018-06-19T19:01:58.196Z,8.20
2018-06-19T19:04:28.874Z,7.20
2018-06-19T19:06:59.544Z,6.83
2018-06-19T19:09:30.205Z,7.20
2018-06-19T19:12:00.860Z,8.67
2018-06-19T19:14:36.762Z,7.67
2018-06-19T19:17:12.969Z,7.10
2018-06-19T19:19:43.634Z,8.20
2018-06-19T19:22:14.292Z,8.93
2018-06-19T19:24:44.927Z,7.63
2018-06-19T19:27:20.703Z,8.87
2018-06-19T19:29:52.359Z,8.20
2018-06-19T19:32:23.002Z,12.53
2018-06-19T19:34:53.657Z,8.53
2018-06-19T19:37:29.469Z,9.20
2018-06-19T19:40:00.079Z,9.33
2018-06-19T19:42:30.721Z,8.77
2018-06-19T19:45:01.375Z,8.30
2018-06-19T19:47:37.168Z,9.00
2018-06-19T19:50:07.913Z,9.53
2018-06-19T19:53:09.258Z,8.93
2018-06-19T19:55:44.971Z,7.97
2018-06-19T19:58:20.920Z,9.40
2018-06-19T20:00:51.684Z,11.23
2018-06-19T20:03:53.338Z,8.10
2018-06-19T20:06:23.995Z,8.80
2018-06-19T20:08:54.613Z,8.43
2018-06-19T20:11:25.266Z,9.77
2018-06-19T20:13:56.016Z,8.90
2018-06-19T20:16:26.698Z,9.13
2018-06-19T20:18:57.565Z,9.83
2018-06-19T20:21:28.290Z,8.97
2018-06-19T20:23:58.962Z,9.83
2018-06-19T20:26:29.607Z,8.73
2018-06-19T20:29:00.241Z,8.23
2018-06-19T20:31:30.911Z,11.47
2018-06-19T20:34:01.623Z,8.03
2018-06-19T20:36:32.273Z,8.00
2018-06-19T20:39:03.008Z,10.03
2018-06-19T20:41:33.739Z,9.77
2018-06-19T20:44:04.653Z,10.13
2018-06-19T20:46:35.393Z,9.73
2018-06-19T20:49:06.131Z,10.50
2018-06-19T20:51:36.799Z,10.00
2018-06-19T20:54:07.511Z,10.47
2018-06-19T20:56:38.157Z,10.70
2018-06-19T20:59:08.887Z,11.87
2018-06-19T21:01:39.655Z,10.73
2018-06-19T21:04:10.542Z,12.27
2018-06-19T21:06:41.255Z,12.47
2018-06-19T21:09:11.931Z,11.70
2018-06-19T21:11:42.629Z,12.77
2018-06-19T21:14:13.324Z,11.53
2018-06-19T21:16:43.993Z,12.87
2018-06-19T21:19:14.684Z,11.87
2018-06-19T21:21:45.429Z,12.13
2018-06-19T21:24:16.152Z,11.70
2018-06-19T21:26:46.864Z,11.60
2018-06-19T21:29:17.531Z,10.63
2018-06-19T21:31:48.221Z,10.93
2018-06-19T21:34:18.873Z,11.77
2018-06-19T21:36:49.536Z,12.40
2018-06-19T21:39:20.172Z,13.83
2018-06-19T21:41:51.139Z,11.33
2018-06-19T21:44:21.786Z,13.97
2018-06-19T21:46:52.435Z,13.90
2018-06-19T21:49:23.112Z,14.20
2018-06-19T21:51:53.837Z,11.47
2018-06-19T21:54:24.554Z,13.57
2018-06-19T21:56:55.268Z,12.77
2018-06-19T21:59:26.040Z,13.60
2018-06-19T22:01:56.782Z,14.63
2018-06-19T22:04:27.503Z,13.97
2018-06-19T22:06:58.160Z,13.93
2018-06-19T22:09:29.140Z,14.87
2018-06-19T22:11:59.845Z,15.93
2018-06-19T22:14:30.488Z,18.33
2018-06-19T22:17:01.220Z,16.40
2018-06-19T22:19:31.898Z,15.83
2018-06-19T22:22:02.629Z,17.00
2018-06-19T22:24:33.281Z,15.60
2018-06-19T22:27:03.971Z,13.77
2018-06-19T22:29:34.684Z,14.67
2018-06-19T22:32:05.353Z,14.90
2018-06-19T22:34:36.013Z,14.97
2018-06-19T22:37:06.882Z,14.87
2018-06-19T22:39:37.529Z,13.97
2018-06-19T22:42:08.324Z,14.30
2018-06-19T22:44:39.078Z,16.83
2018-06-19T22:47:09.789Z,15.23
2018-06-19T22:49:40.467Z,14.63
2018-06-19T22:52:11.236Z,14.33
2018-06-19T22:54:41.899Z,15.23
2018-06-19T22:57:12.591Z,16.47
2018-06-19T22:59:43.291Z,15.30
2018-06-19T23:02:13.950Z,17.23
2018-06-19T23:04:44.663Z,16.77
2018-06-19T23:07:15.381Z,15.37
2018-06-19T23:09:46.045Z,15.00
2018-06-19T23:12:16.729Z,17.10
2018-06-19T23:14:47.364Z,18.90
2018-06-19T23:17:18.019Z,15.80
2018-06-19T23:19:48.675Z,17.90
2018-06-19T23:22:19.924Z,20.30
2018-06-19T23:24:50.619Z,16.90
2018-06-19T23:27:21.352Z,17.80
2018-06-19T23:29:52.126Z,16.97
2018-06-19T23:32:22.801Z,18.30
2018-06-19T23:34:53.496Z,17.07
2018-06-19T23:37:24.161Z,17.03
2018-06-19T23:39:54.927Z,16.73
2018-06-19T23:42:25.757Z,17.53
2018-06-19T23:44:56.567Z,15.97
2018-06-19T23:47:27.247Z,14.20
2018-06-19T23:49:57.973Z,16.30
2018-06-19T23:52:28.804Z,17.67
2018-06-19T23:54:59.544Z,17.27
2018-06-19T23:57:30.438Z,16.20
